sensor_id;sensor_type;location;lat;lon;timestamp;P1;durP1;ratioP1;P2;durP2;ratioP2
35126;SDS011;21300;52.006;5.798;2023-04-25T00:01:55;9.25;;;2.53;;
35126;SDS011;21300;52.006;5.798;2023-04-25T00:04:21;10.82;;;2.72;;
35126;SDS011;21300;52.006;5.798;2023-04-25T00:06:47;10.82;;;3.08;;
35126;SDS011;21300;52.006;5.798;2023-04-25T00:09:13;8.40;;;2.92;;
35126;SDS011;21300;52.006;5.798;2023-04-25T00:11:39;12.98;;;3.67;;
35126;SDS011;21300;52.006;5.798;2023-04-25T00:14:05;9.65;;;2.83;;
35126;SDS011;21300;52.006;5.798;2023-04-25T00:16:31;11.77;;;3.55;;
35126;SDS011;21300;52.006;5.798;2023-04-25T00:18:59;12.57;;;2.80;;
35126;SDS011;21300;52.006;5.798;2023-04-25T00:21:27;9.18;;;2.92;;
35126;SDS011;21300;52.006;5.798;2023-04-25T00:23:53;8.23;;;2.55;;
35126;SDS011;21300;52.006;5.798;2023-04-25T00:26:19;14.20;;;2.90;;
35126;SDS011;21300;52.006;5.798;2023-04-25T00:28:45;9.57;;;2.60;;
35126;SDS011;21300;52.006;5.798;2023-04-25T00:31:12;16.00;;;3.95;;
35126;SDS011;21300;52.006;5.798;2023-04-25T00:33:37;14.13;;;2.60;;
35126;SDS011;21300;52.006;5.798;2023-04-25T00:36:03;9.32;;;3.17;;
35126;SDS011;21300;52.006;5.798;2023-04-25T00:38:29;14.20;;;3.95;;
35126;SDS011;21300;52.006;5.798;2023-04-25T00:40:54;17.02;;;3.95;;
35126;SDS011;21300;52.006;5.798;2023-04-25T00:43:20;13.27;;;3.53;;
35126;SDS011;21300;52.006;5.798;2023-04-25T00:45:47;16.95;;;3.35;;
35126;SDS011;21300;52.006;5.798;2023-04-25T00:48:14;14.82;;;3.78;;
35126;SDS011;21300;52.006;5.798;2023-04-25T00:50:40;15.82;;;3.63;;
35126;SDS011;21300;52.006;5.798;2023-04-25T00:53:07;16.27;;;3.78;;
35126;SDS011;21300;52.006;5.798;2023-04-25T00:55:34;11.55;;;3.40;;
35126;SDS011;21300;52.006;5.798;2023-04-25T00:58:01;14.52;;;3.85;;
35126;SDS011;21300;52.006;5.798;2023-04-25T01:00:26;12.90;;;3.65;;
35126;SDS011;21300;52.006;5.798;2023-04-25T01:02:52;14.50;;;3.42;;
35126;SDS011;21300;52.006;5.798;2023-04-25T01:05:17;11.88;;;3.42;;
35126;SDS011;21300;52.006;5.798;2023-04-25T01:07:43;11.55;;;3.10;;
35126;SDS011;21300;52.006;5.798;2023-04-25T01:10:10;11.70;;;3.60;;
35126;SDS011;21300;52.006;5.798;2023-04-25T01:12:35;12.70;;;3.58;;
35126;SDS011;21300;52.006;5.798;2023-04-25T01:15:01;11.88;;;4.05;;
35126;SDS011;21300;52.006;5.798;2023-04-25T01:17:27;14.50;;;4.53;;
35126;SDS011;21300;52.006;5.798;2023-04-25T01:19:54;14.38;;;4.38;;
35126;SDS011;21300;52.006;5.798;2023-04-25T01:22:20;12.27;;;3.50;;
35126;SDS011;21300;52.006;5.798;2023-04-25T01:24:46;10.30;;;3.65;;
35126;SDS011;21300;52.006;5.798;2023-04-25T01:27:11;15.38;;;3.90;;
35126;SDS011;21300;52.006;5.798;2023-04-25T01:29:37;16.15;;;3.40;;
35126;SDS011;21300;52.006;5.798;2023-04-25T01:32:04;14.82;;;3.28;;
35126;SDS011;21300;52.006;5.798;2023-04-25T01:34:30;14.43;;;3.55;;
35126;SDS011;21300;52.006;5.798;2023-04-25T01:36:56;9.52;;;3.00;;
35126;SDS011;21300;52.006;5.798;2023-04-25T01:39:23;12.10;;;3.13;;
35126;SDS011;21300;52.006;5.798;2023-04-25T01:41:50;14.70;;;4.10;;
35126;SDS011;21300;52.006;5.798;2023-04-25T01:44:16;18.35;;;3.75;;
35126;SDS011;21300;52.006;5.798;2023-04-25T01:46:41;16.55;;;3.28;;
35126;SDS011;21300;52.006;5.798;2023-04-25T01:49:07;15.02;;;4.18;;
35126;SDS011;21300;52.006;5.798;2023-04-25T01:51:33;13.82;;;4.15;;
35126;SDS011;21300;52.006;5.798;2023-04-25T01:53:59;13.45;;;3.60;;
35126;SDS011;21300;52.006;5.798;2023-04-25T01:56:27;18.45;;;3.80;;
35126;SDS011;21300;52.006;5.798;2023-04-25T01:58:56;15.73;;;3.75;;
35126;SDS011;21300;52.006;5.798;2023-04-25T02:01:22;17.10;;;4.03;;
35126;SDS011;21300;52.006;5.798;2023-04-25T02:03:47;15.77;;;3.58;;
35126;SDS011;21300;52.006;5.798;2023-04-25T02:06:13;17.55;;;4.70;;
35126;SDS011;21300;52.006;5.798;2023-04-25T02:08:38;12.30;;;3.35;;
35126;SDS011;21300;52.006;5.798;2023-04-25T02:11:04;16.05;;;4.13;;
35126;SDS011;21300;52.006;5.798;2023-04-25T02:13:30;15.55;;;3.92;;
35126;SDS011;21300;52.006;5.798;2023-04-25T02:15:55;11.85;;;3.65;;
35126;SDS011;21300;52.006;5.798;2023-04-25T02:18:21;15.35;;;4.13;;
35126;SDS011;21300;52.006;5.798;2023-04-25T02:20:47;15.98;;;3.90;;
35126;SDS011;21300;52.006;5.798;2023-04-25T02:23:13;17.30;;;4.20;;
35126;SDS011;21300;52.006;5.798;2023-04-25T02:25:40;20.17;;;3.90;;
35126;SDS011;21300;52.006;5.798;2023-04-25T02:28:06;14.38;;;3.38;;
35126;SDS011;21300;52.006;5.798;2023-04-25T02:30:31;21.98;;;3.90;;
35126;SDS011;21300;52.006;5.798;2023-04-25T02:32:57;14.15;;;3.60;;
35126;SDS011;21300;52.006;5.798;2023-04-25T02:35:22;14.20;;;3.72;;
35126;SDS011;21300;52.006;5.798;2023-04-25T02:37:48;16.05;;;3.88;;
35126;SDS011;21300;52.006;5.798;2023-04-25T02:40:13;13.63;;;4.18;;
35126;SDS011;21300;52.006;5.798;2023-04-25T02:42:39;13.10;;;3.63;;
35126;SDS011;21300;52.006;5.798;2023-04-25T02:45:05;19.63;;;3.90;;
35126;SDS011;21300;52.006;5.798;2023-04-25T02:47:31;12.00;;;3.25;;
35126;SDS011;21300;52.006;5.798;2023-04-25T02:49:56;16.38;;;3.28;;
35126;SDS011;21300;52.006;5.798;2023-04-25T02:52:22;12.13;;;3.95;;
35126;SDS011;21300;52.006;5.798;2023-04-25T02:54:47;10.60;;;2.75;;
35126;SDS011;21300;52.006;5.798;2023-04-25T02:57:13;13.95;;;3.30;;
35126;SDS011;21300;52.006;5.798;2023-04-25T02:59:39;18.92;;;3.85;;
35126;SDS011;21300;52.006;5.798;2023-04-25T03:02:04;12.45;;;3.50;;
35126;SDS011;21300;52.006;5.798;2023-04-25T03:04:30;11.48;;;3.47;;
35126;SDS011;21300;52.006;5.798;2023-04-25T03:06:56;17.15;;;3.80;;
35126;SDS011;21300;52.006;5.798;2023-04-25T03:09:22;15.60;;;3.90;;
35126;SDS011;21300;52.006;5.798;2023-04-25T03:11:47;10.70;;;3.72;;
35126;SDS011;21300;52.006;5.798;2023-04-25T03:14:13;19.45;;;3.80;;
35126;SDS011;21300;52.006;5.798;2023-04-25T03:16:38;13.93;;;3.70;;
35126;SDS011;21300;52.006;5.798;2023-04-25T03:19:04;15.80;;;3.92;;
35126;SDS011;21300;52.006;5.798;2023-04-25T03:21:30;17.80;;;3.08;;
35126;SDS011;21300;52.006;5.798;2023-04-25T03:23:57;14.32;;;4.05;;
35126;SDS011;21300;52.006;5.798;2023-04-25T03:26:23;12.15;;;3.33;;
35126;SDS011;21300;52.006;5.798;2023-04-25T03:28:48;11.80;;;3.60;;
35126;SDS011;21300;52.006;5.798;2023-04-25T03:31:14;9.38;;;3.33;;
35126;SDS011;21300;52.006;5.798;2023-04-25T03:33:40;14.93;;;3.22;;
35126;SDS011;21300;52.006;5.798;2023-04-25T03:36:05;11.43;;;2.92;;
35126;SDS011;21300;52.006;5.798;2023-04-25T03:38:31;12.80;;;3.30;;
35126;SDS011;21300;52.006;5.798;2023-04-25T03:40:57;13.68;;;3.63;;
35126;SDS011;21300;52.006;5.798;2023-04-25T03:43:22;13.82;;;3.25;;
35126;SDS011;21300;52.006;5.798;2023-04-25T03:45:48;11.15;;;2.95;;
35126;SDS011;21300;52.006;5.798;2023-04-25T03:48:14;11.52;;;3.42;;
35126;SDS011;21300;52.006;5.798;2023-04-25T03:50:39;15.80;;;3.13;;
35126;SDS011;21300;52.006;5.798;2023-04-25T03:53:05;9.38;;;3.42;;
35126;SDS011;21300;52.006;5.798;2023-04-25T03:55:30;11.13;;;3.50;;
35126;SDS011;21300;52.006;5.798;2023-04-25T03:57:57;15.63;;;3.20;;
35126;SDS011;21300;52.006;5.798;2023-04-25T04:00:23;12.55;;;3.50;;
35126;SDS011;21300;52.006;5.798;2023-04-25T04:02:49;18.42;;;3.10;;
35126;SDS011;21300;52.006;5.798;2023-04-25T04:05:15;12.93;;;3.03;;
35126;SDS011;21300;52.006;5.798;2023-04-25T04:07:40;15.80;;;3.90;;
35126;SDS011;21300;52.006;5.798;2023-04-25T04:10:07;11.93;;;3.10;;
35126;SDS011;21300;52.006;5.798;2023-04-25T04:12:34;12.73;;;3.30;;
35126;SDS011;21300;52.006;5.798;2023-04-25T04:15:00;11.57;;;3.38;;
35126;SDS011;21300;52.006;5.798;2023-04-25T04:17:26;14.65;;;3.50;;
35126;SDS011;21300;52.006;5.798;2023-04-25T04:19:51;15.65;;;3.28;;
35126;SDS011;21300;52.006;5.798;2023-04-25T04:22:17;13.02;;;3.47;;
35126;SDS011;21300;52.006;5.798;2023-04-25T04:24:42;13.05;;;4.20;;
35126;SDS011;21300;52.006;5.798;2023-04-25T04:27:12;10.10;;;3.33;;
35126;SDS011;21300;52.006;5.798;2023-04-25T04:29:38;16.45;;;3.92;;
35126;SDS011;21300;52.006;5.798;2023-04-25T04:32:04;15.02;;;3.10;;
35126;SDS011;21300;52.006;5.798;2023-04-25T04:34:30;16.90;;;3.80;;
35126;SDS011;21300;52.006;5.798;2023-04-25T04:36:56;12.90;;;3.40;;
35126;SDS011;21300;52.006;5.798;2023-04-25T04:39:21;17.58;;;3.65;;
35126;SDS011;21300;52.006;5.798;2023-04-25T04:41:47;17.08;;;3.63;;
35126;SDS011;21300;52.006;5.798;2023-04-25T04:44:13;13.73;;;3.40;;
35126;SDS011;21300;52.006;5.798;2023-04-25T04:46:39;11.20;;;3.28;;
35126;SDS011;21300;52.006;5.798;2023-04-25T04:49:05;8.07;;;2.70;;
35126;SDS011;21300;52.006;5.798;2023-04-25T04:51:31;9.70;;;3.30;;
35126;SDS011;21300;52.006;5.798;2023-04-25T04:53:57;14.35;;;3.00;;
35126;SDS011;21300;52.006;5.798;2023-04-25T04:56:27;12.27;;;4.30;;
35126;SDS011;21300;52.006;5.798;2023-04-25T04:58:54;16.25;;;3.80;;
35126;SDS011;21300;52.006;5.798;2023-04-25T05:01:20;13.75;;;3.42;;
35126;SDS011;21300;52.006;5.798;2023-04-25T05:03:45;13.20;;;3.47;;
35126;SDS011;21300;52.006;5.798;2023-04-25T05:06:11;13.55;;;3.85;;
35126;SDS011;21300;52.006;5.798;2023-04-25T05:08:36;11.30;;;3.00;;
35126;SDS011;21300;52.006;5.798;2023-04-25T05:11:02;10.63;;;3.40;;
35126;SDS011;21300;52.006;5.798;2023-04-25T05:13:27;14.65;;;3.90;;
35126;SDS011;21300;52.006;5.798;2023-04-25T05:15:53;16.67;;;4.20;;
35126;SDS011;21300;52.006;5.798;2023-04-25T05:18:19;12.02;;;3.40;;
35126;SDS011;21300;52.006;5.798;2023-04-25T05:20:44;14.13;;;3.92;;
35126;SDS011;21300;52.006;5.798;2023-04-25T05:23:10;10.65;;;3.08;;
35126;SDS011;21300;52.006;5.798;2023-04-25T05:25:36;14.13;;;3.85;;
35126;SDS011;21300;52.006;5.798;2023-04-25T05:28:01;8.43;;;3.65;;
35126;SDS011;21300;52.006;5.798;2023-04-25T05:30:27;14.65;;;4.35;;
35126;SDS011;21300;52.006;5.798;2023-04-25T05:32:52;12.90;;;3.80;;
35126;SDS011;21300;52.006;5.798;2023-04-25T05:35:18;11.82;;;3.65;;
35126;SDS011;21300;52.006;5.798;2023-04-25T05:37:43;14.55;;;4.05;;
35126;SDS011;21300;52.006;5.798;2023-04-25T05:40:09;13.10;;;3.92;;
35126;SDS011;21300;52.006;5.798;2023-04-25T05:42:35;10.27;;;3.72;;
35126;SDS011;21300;52.006;5.798;2023-04-25T05:45:01;13.65;;;3.95;;
35126;SDS011;21300;52.006;5.798;2023-04-25T05:47:26;11.25;;;3.83;;
35126;SDS011;21300;52.006;5.798;2023-04-25T05:49:52;13.00;;;4.10;;
35126;SDS011;21300;52.006;5.798;2023-04-25T05:52:17;13.95;;;4.45;;
35126;SDS011;21300;52.006;5.798;2023-04-25T05:54:43;16.40;;;4.15;;
35126;SDS011;21300;52.006;5.798;2023-04-25T05:57:17;18.10;;;3.28;;
35126;SDS011;21300;52.006;5.798;2023-04-25T05:59:47;12.50;;;3.10;;
35126;SDS011;21300;52.006;5.798;2023-04-25T06:02:13;11.50;;;3.45;;
35126;SDS011;21300;52.006;5.798;2023-04-25T06:04:38;10.10;;;2.92;;
35126;SDS011;21300;52.006;5.798;2023-04-25T06:07:04;9.18;;;3.30;;
35126;SDS011;21300;52.006;5.798;2023-04-25T06:09:29;18.20;;;4.00;;
35126;SDS011;21300;52.006;5.798;2023-04-25T06:11:55;15.23;;;3.75;;
35126;SDS011;21300;52.006;5.798;2023-04-25T06:14:20;9.43;;;2.65;;
35126;SDS011;21300;52.006;5.798;2023-04-25T06:16:46;12.00;;;2.60;;
35126;SDS011;21300;52.006;5.798;2023-04-25T06:19:11;10.40;;;2.88;;
35126;SDS011;21300;52.006;5.798;2023-04-25T06:21:37;10.55;;;2.97;;
35126;SDS011;21300;52.006;5.798;2023-04-25T06:24:03;12.80;;;3.10;;
35126;SDS011;21300;52.006;5.798;2023-04-25T06:26:28;8.88;;;2.85;;
35126;SDS011;21300;52.006;5.798;2023-04-25T06:28:54;13.27;;;3.00;;
35126;SDS011;21300;52.006;5.798;2023-04-25T06:31:20;13.98;;;3.20;;
35126;SDS011;21300;52.006;5.798;2023-04-25T06:33:45;9.15;;;2.65;;
35126;SDS011;21300;52.006;5.798;2023-04-25T06:36:11;9.60;;;3.00;;
35126;SDS011;21300;52.006;5.798;2023-04-25T06:38:36;11.50;;;2.90;;
35126;SDS011;21300;52.006;5.798;2023-04-25T06:41:02;14.23;;;3.25;;
35126;SDS011;21300;52.006;5.798;2023-04-25T06:43:27;12.65;;;3.15;;
35126;SDS011;21300;52.006;5.798;2023-04-25T06:45:53;12.80;;;3.13;;
35126;SDS011;21300;52.006;5.798;2023-04-25T06:48:19;8.60;;;3.00;;
35126;SDS011;21300;52.006;5.798;2023-04-25T06:50:44;9.82;;;3.03;;
35126;SDS011;21300;52.006;5.798;2023-04-25T06:53:10;13.68;;;3.20;;
35126;SDS011;21300;52.006;5.798;2023-04-25T06:55:36;11.60;;;2.83;;
35126;SDS011;21300;52.006;5.798;2023-04-25T06:58:02;10.38;;;2.58;;
35126;SDS011;21300;52.006;5.798;2023-04-25T07:00:28;11.40;;;2.88;;
35126;SDS011;21300;52.006;5.798;2023-04-25T07:02:53;13.45;;;2.88;;
35126;SDS011;21300;52.006;5.798;2023-04-25T07:05:19;15.20;;;3.10;;
35126;SDS011;21300;52.006;5.798;2023-04-25T07:07:45;8.65;;;2.72;;
35126;SDS011;21300;52.006;5.798;2023-04-25T07:10:10;8.48;;;2.20;;
35126;SDS011;21300;52.006;5.798;2023-04-25T07:12:36;12.18;;;2.63;;
35126;SDS011;21300;52.006;5.798;2023-04-25T07:15:02;9.25;;;2.78;;
35126;SDS011;21300;52.006;5.798;2023-04-25T07:17:31;11.95;;;2.53;;
35126;SDS011;21300;52.006;5.798;2023-04-25T07:19:57;14.88;;;2.75;;
35126;SDS011;21300;52.006;5.798;2023-04-25T07:22:23;10.82;;;2.50;;
35126;SDS011;21300;52.006;5.798;2023-04-25T07:24:49;15.38;;;2.78;;
35126;SDS011;21300;52.006;5.798;2023-04-25T07:27:15;11.65;;;2.33;;
35126;SDS011;21300;52.006;5.798;2023-04-25T07:29:40;12.00;;;2.15;;
35126;SDS011;21300;52.006;5.798;2023-04-25T07:32:06;9.23;;;2.17;;
35126;SDS011;21300;52.006;5.798;2023-04-25T07:34:32;7.70;;;1.90;;
35126;SDS011;21300;52.006;5.798;2023-04-25T07:37:02;8.23;;;1.77;;
35126;SDS011;21300;52.006;5.798;2023-04-25T07:39:27;9.57;;;2.20;;
35126;SDS011;21300;52.006;5.798;2023-04-25T07:41:53;8.93;;;2.15;;
35126;SDS011;21300;52.006;5.798;2023-04-25T07:44:19;11.30;;;2.40;;
35126;SDS011;21300;52.006;5.798;2023-04-25T07:46:45;14.80;;;2.00;;
35126;SDS011;21300;52.006;5.798;2023-04-25T07:49:10;11.07;;;1.90;;
35126;SDS011;21300;52.006;5.798;2023-04-25T07:51:36;8.00;;;2.25;;
35126;SDS011;21300;52.006;5.798;2023-04-25T07:54:02;8.25;;;2.10;;
35126;SDS011;21300;52.006;5.798;2023-04-25T07:56:27;8.88;;;2.15;;
35126;SDS011;21300;52.006;5.798;2023-04-25T07:58:53;8.25;;;1.90;;
35126;SDS011;21300;52.006;5.798;2023-04-25T08:01:18;6.28;;;1.50;;
35126;SDS011;21300;52.006;5.798;2023-04-25T08:03:46;9.57;;;1.95;;
35126;SDS011;21300;52.006;5.798;2023-04-25T08:06:12;9.30;;;1.75;;
35126;SDS011;21300;52.006;5.798;2023-04-25T08:08:37;10.93;;;1.70;;
35126;SDS011;21300;52.006;5.798;2023-04-25T08:11:03;9.35;;;1.50;;
35126;SDS011;21300;52.006;5.798;2023-04-25T08:13:28;7.22;;;1.73;;
35126;SDS011;21300;52.006;5.798;2023-04-25T08:15:54;13.68;;;1.88;;
35126;SDS011;21300;52.006;5.798;2023-04-25T08:18:20;10.02;;;1.40;;
35126;SDS011;21300;52.006;5.798;2023-04-25T08:20:45;8.65;;;2.13;;
35126;SDS011;21300;52.006;5.798;2023-04-25T08:23:11;4.97;;;1.42;;
35126;SDS011;21300;52.006;5.798;2023-04-25T08:25:37;8.98;;;1.70;;
35126;SDS011;21300;52.006;5.798;2023-04-25T08:28:02;8.45;;;1.83;;
35126;SDS011;21300;52.006;5.798;2023-04-25T08:30:28;8.82;;;1.40;;
35126;SDS011;21300;52.006;5.798;2023-04-25T08:32:54;7.20;;;1.50;;
35126;SDS011;21300;52.006;5.798;2023-04-25T08:35:20;5.55;;;1.50;;
35126;SDS011;21300;52.006;5.798;2023-04-25T08:37:45;8.50;;;1.52;;
35126;SDS011;21300;52.006;5.798;2023-04-25T08:40:11;4.85;;;1.15;;
35126;SDS011;21300;52.006;5.798;2023-04-25T08:42:39;10.35;;;1.50;;
35126;SDS011;21300;52.006;5.798;2023-04-25T08:45:07;9.00;;;1.48;;
35126;SDS011;21300;52.006;5.798;2023-04-25T08:47:33;8.93;;;1.13;;
35126;SDS011;21300;52.006;5.798;2023-04-25T08:50:00;8.68;;;1.33;;
35126;SDS011;21300;52.006;5.798;2023-04-25T08:52:28;10.55;;;1.70;;
35126;SDS011;21300;52.006;5.798;2023-04-25T08:55:00;7.82;;;1.55;;
35126;SDS011;21300;52.006;5.798;2023-04-25T08:57:27;5.28;;;0.93;;
35126;SDS011;21300;52.006;5.798;2023-04-25T08:59:53;10.05;;;1.85;;
35126;SDS011;21300;52.006;5.798;2023-04-25T09:02:20;6.78;;;1.55;;
35126;SDS011;21300;52.006;5.798;2023-04-25T09:04:46;9.85;;;1.90;;
35126;SDS011;21300;52.006;5.798;2023-04-25T09:07:13;5.03;;;1.08;;
35126;SDS011;21300;52.006;5.798;2023-04-25T09:09:43;5.57;;;1.20;;
35126;SDS011;21300;52.006;5.798;2023-04-25T09:12:08;6.80;;;1.30;;
35126;SDS011;21300;52.006;5.798;2023-04-25T09:14:35;4.10;;;1.50;;
35126;SDS011;21300;52.006;5.798;2023-04-25T09:17:01;6.15;;;1.40;;
35126;SDS011;21300;52.006;5.798;2023-04-25T09:19:30;8.00;;;1.20;;
35126;SDS011;21300;52.006;5.798;2023-04-25T09:21:57;10.02;;;1.20;;
35126;SDS011;21300;52.006;5.798;2023-04-25T09:24:35;6.07;;;1.40;;
35126;SDS011;21300;52.006;5.798;2023-04-25T09:27:03;7.03;;;1.50;;
35126;SDS011;21300;52.006;5.798;2023-04-25T09:29:30;11.57;;;1.65;;
35126;SDS011;21300;52.006;5.798;2023-04-25T09:32:19;8.68;;;1.30;;
35126;SDS011;21300;52.006;5.798;2023-04-25T09:34:50;7.00;;;1.05;;
35126;SDS011;21300;52.006;5.798;2023-04-25T09:37:17;7.78;;;1.58;;
35126;SDS011;21300;52.006;5.798;2023-04-25T09:39:54;5.22;;;1.25;;
35126;SDS011;21300;52.006;5.798;2023-04-25T09:42:22;6.60;;;1.45;;
35126;SDS011;21300;52.006;5.798;2023-04-25T09:44:49;6.80;;;1.20;;
35126;SDS011;21300;52.006;5.798;2023-04-25T09:47:17;8.05;;;1.33;;
35126;SDS011;21300;52.006;5.798;2023-04-25T09:49:43;5.38;;;0.95;;
35126;SDS011;21300;52.006;5.798;2023-04-25T09:52:09;10.15;;;1.50;;
35126;SDS011;21300;52.006;5.798;2023-04-25T09:54:39;4.38;;;1.33;;
35126;SDS011;21300;52.006;5.798;2023-04-25T09:57:24;8.00;;;1.23;;
35126;SDS011;21300;52.006;5.798;2023-04-25T09:59:50;4.87;;;1.00;;
35126;SDS011;21300;52.006;5.798;2023-04-25T10:02:18;5.05;;;1.08;;
35126;SDS011;21300;52.006;5.798;2023-04-25T10:04:47;7.55;;;0.93;;
35126;SDS011;21300;52.006;5.798;2023-04-25T10:07:16;5.78;;;1.08;;
35126;SDS011;21300;52.006;5.798;2023-04-25T10:09:42;5.45;;;1.10;;
35126;SDS011;21300;52.006;5.798;2023-04-25T10:12:11;7.45;;;1.33;;
35126;SDS011;21300;52.006;5.798;2023-04-25T10:14:37;5.22;;;1.23;;
35126;SDS011;21300;52.006;5.798;2023-04-25T10:17:05;6.55;;;1.20;;
35126;SDS011;21300;52.006;5.798;2023-04-25T10:19:31;8.50;;;1.48;;
35126;SDS011;21300;52.006;5.798;2023-04-25T10:22:05;9.02;;;1.25;;
35126;SDS011;21300;52.006;5.798;2023-04-25T10:24:34;8.85;;;0.80;;
35126;SDS011;21300;52.006;5.798;2023-04-25T10:27:01;7.90;;;1.00;;
35126;SDS011;21300;52.006;5.798;2023-04-25T10:29:27;9.20;;;0.90;;
35126;SDS011;21300;52.006;5.798;2023-04-25T10:31:52;4.80;;;0.85;;
35126;SDS011;21300;52.006;5.798;2023-04-25T10:34:18;9.63;;;1.50;;
35126;SDS011;21300;52.006;5.798;2023-04-25T10:36:51;5.13;;;1.10;;
35126;SDS011;21300;52.006;5.798;2023-04-25T10:39:21;5.85;;;1.05;;
35126;SDS011;21300;52.006;5.798;2023-04-25T10:41:52;3.95;;;0.98;;
35126;SDS011;21300;52.006;5.798;2023-04-25T10:44:22;7.07;;;1.13;;
35126;SDS011;21300;52.006;5.798;2023-04-25T10:46:47;3.72;;;0.77;;
35126;SDS011;21300;52.006;5.798;2023-04-25T10:52:15;3.45;;;0.88;;
35126;SDS011;21300;52.006;5.798;2023-04-25T10:54:51;5.35;;;1.10;;
35126;SDS011;21300;52.006;5.798;2023-04-25T10:57:31;8.43;;;1.30;;
35126;SDS011;21300;52.006;5.798;2023-04-25T11:00:12;6.63;;;1.23;;
35126;SDS011;21300;52.006;5.798;2023-04-25T11:02:42;6.85;;;0.95;;
35126;SDS011;21300;52.006;5.798;2023-04-25T11:05:54;6.57;;;1.60;;
35126;SDS011;21300;52.006;5.798;2023-04-25T11:08:01;5.93;;;1.08;;
35126;SDS011;21300;52.006;5.798;2023-04-25T11:10:29;6.25;;;1.20;;
35126;SDS011;21300;52.006;5.798;2023-04-25T11:12:56;3.53;;;1.00;;
35126;SDS011;21300;52.006;5.798;2023-04-25T11:15:23;7.35;;;0.90;;
35126;SDS011;21300;52.006;5.798;2023-04-25T11:17:50;4.18;;;0.73;;
35126;SDS011;21300;52.006;5.798;2023-04-25T11:20:20;7.93;;;1.15;;
35126;SDS011;21300;52.006;5.798;2023-04-25T11:22:47;5.70;;;1.10;;
35126;SDS011;21300;52.006;5.798;2023-04-25T11:25:13;5.13;;;1.15;;
35126;SDS011;21300;52.006;5.798;2023-04-25T11:30:16;3.50;;;0.80;;
35126;SDS011;21300;52.006;5.798;2023-04-25T11:32:42;8.52;;;1.15;;
35126;SDS011;21300;52.006;5.798;2023-04-25T11:35:08;3.17;;;0.90;;
35126;SDS011;21300;52.006;5.798;2023-04-25T11:37:35;4.28;;;1.30;;
35126;SDS011;21300;52.006;5.798;2023-04-25T11:40:02;3.15;;;0.80;;
35126;SDS011;21300;52.006;5.798;2023-04-25T11:42:28;7.90;;;1.00;;
35126;SDS011;21300;52.006;5.798;2023-04-25T11:44:55;3.40;;;0.90;;
35126;SDS011;21300;52.006;5.798;2023-04-25T11:47:27;5.88;;;1.10;;
35126;SDS011;21300;52.006;5.798;2023-04-25T11:49:57;3.05;;;0.95;;
35126;SDS011;21300;52.006;5.798;2023-04-25T11:52:24;5.55;;;0.80;;
35126;SDS011;21300;52.006;5.798;2023-04-25T11:55:00;2.38;;;0.73;;
35126;SDS011;21300;52.006;5.798;2023-04-25T11:57:25;7.95;;;1.25;;
35126;SDS011;21300;52.006;5.798;2023-04-25T11:59:51;5.13;;;1.42;;
35126;SDS011;21300;52.006;5.798;2023-04-25T12:02:25;6.82;;;1.08;;
35126;SDS011;21300;52.006;5.798;2023-04-25T12:04:51;8.32;;;1.50;;
35126;SDS011;21300;52.006;5.798;2023-04-25T12:07:17;5.00;;;1.10;;
35126;SDS011;21300;52.006;5.798;2023-04-25T12:09:51;6.53;;;1.10;;
35126;SDS011;21300;52.006;5.798;2023-04-25T12:12:18;7.07;;;1.10;;
35126;SDS011;21300;52.006;5.798;2023-04-25T12:14:45;4.85;;;1.33;;
35126;SDS011;21300;52.006;5.798;2023-04-25T12:17:13;3.60;;;1.38;;
35126;SDS011;21300;52.006;5.798;2023-04-25T12:19:39;5.45;;;1.20;;
35126;SDS011;21300;52.006;5.798;2023-04-25T12:22:19;5.20;;;1.23;;
35126;SDS011;21300;52.006;5.798;2023-04-25T12:24:46;4.40;;;1.17;;
35126;SDS011;21300;52.006;5.798;2023-04-25T12:27:13;2.97;;;1.10;;
35126;SDS011;21300;52.006;5.798;2023-04-25T12:29:50;8.15;;;1.27;;
35126;SDS011;21300;52.006;5.798;2023-04-25T12:32:17;4.60;;;1.10;;
35126;SDS011;21300;52.006;5.798;2023-04-25T12:34:43;7.03;;;1.30;;
35126;SDS011;21300;52.006;5.798;2023-04-25T12:37:08;4.80;;;1.50;;
35126;SDS011;21300;52.006;5.798;2023-04-25T12:39:34;4.63;;;1.30;;
35126;SDS011;21300;52.006;5.798;2023-04-25T12:42:00;7.47;;;1.95;;
35126;SDS011;21300;52.006;5.798;2023-04-25T12:44:26;3.88;;;1.02;;
35126;SDS011;21300;52.006;5.798;2023-04-25T12:46:51;6.88;;;1.00;;
35126;SDS011;21300;52.006;5.798;2023-04-25T12:49:18;5.40;;;1.05;;
35126;SDS011;21300;52.006;5.798;2023-04-25T12:51:43;9.88;;;1.10;;
35126;SDS011;21300;52.006;5.798;2023-04-25T12:54:09;9.00;;;1.38;;
35126;SDS011;21300;52.006;5.798;2023-04-25T12:56:35;3.15;;;1.02;;
35126;SDS011;21300;52.006;5.798;2023-04-25T12:59:01;6.30;;;1.17;;
35126;SDS011;21300;52.006;5.798;2023-04-25T13:01:28;6.40;;;1.10;;
35126;SDS011;21300;52.006;5.798;2023-04-25T13:03:54;3.85;;;0.95;;
35126;SDS011;21300;52.006;5.798;2023-04-25T13:06:21;5.18;;;0.93;;
35126;SDS011;21300;52.006;5.798;2023-04-25T13:08:47;6.68;;;1.20;;
35126;SDS011;21300;52.006;5.798;2023-04-25T13:11:12;3.85;;;1.02;;
35126;SDS011;21300;52.006;5.798;2023-04-25T13:13:39;5.60;;;2.03;;
35126;SDS011;21300;52.006;5.798;2023-04-25T13:16:05;8.95;;;1.45;;
35126;SDS011;21300;52.006;5.798;2023-04-25T13:18:32;2.38;;;0.80;;
35126;SDS011;21300;52.006;5.798;2023-04-25T13:20:58;3.63;;;1.30;;
35126;SDS011;21300;52.006;5.798;2023-04-25T13:23:28;7.32;;;1.60;;
35126;SDS011;21300;52.006;5.798;2023-04-25T13:25:55;4.13;;;0.90;;
35126;SDS011;21300;52.006;5.798;2023-04-25T13:28:22;6.60;;;0.85;;
35126;SDS011;21300;52.006;5.798;2023-04-25T13:30:48;2.92;;;0.90;;
35126;SDS011;21300;52.006;5.798;2023-04-25T13:33:14;5.47;;;1.13;;
35126;SDS011;21300;52.006;5.798;2023-04-25T13:35:40;2.78;;;0.88;;
35126;SDS011;21300;52.006;5.798;2023-04-25T13:38:06;3.35;;;1.02;;
35126;SDS011;21300;52.006;5.798;2023-04-25T13:40:32;3.15;;;0.80;;
35126;SDS011;21300;52.006;5.798;2023-04-25T13:42:58;3.10;;;0.95;;
35126;SDS011;21300;52.006;5.798;2023-04-25T13:45:24;3.38;;;1.02;;
35126;SDS011;21300;52.006;5.798;2023-04-25T13:47:49;5.50;;;1.13;;
35126;SDS011;21300;52.006;5.798;2023-04-25T13:50:16;5.00;;;1.08;;
35126;SDS011;21300;52.006;5.798;2023-04-25T13:52:42;3.63;;;0.90;;
35126;SDS011;21300;52.006;5.798;2023-04-25T13:55:08;4.72;;;0.80;;
35126;SDS011;21300;52.006;5.798;2023-04-25T13:57:34;4.05;;;1.80;;
35126;SDS011;21300;52.006;5.798;2023-04-25T14:00:01;5.07;;;0.93;;
35126;SDS011;21300;52.006;5.798;2023-04-25T14:02:34;9.52;;;1.42;;
35126;SDS011;21300;52.006;5.798;2023-04-25T14:05:00;3.15;;;0.90;;
35126;SDS011;21300;52.006;5.798;2023-04-25T14:07:26;4.70;;;1.33;;
35126;SDS011;21300;52.006;5.798;2023-04-25T14:09:52;5.28;;;1.17;;
35126;SDS011;21300;52.006;5.798;2023-04-25T14:12:18;4.78;;;1.20;;
35126;SDS011;21300;52.006;5.798;2023-04-25T14:14:43;7.95;;;1.23;;
35126;SDS011;21300;52.006;5.798;2023-04-25T14:17:09;5.38;;;0.98;;
35126;SDS011;21300;52.006;5.798;2023-04-25T14:19:35;10.02;;;1.75;;
35126;SDS011;21300;52.006;5.798;2023-04-25T14:22:02;5.15;;;1.33;;
35126;SDS011;21300;52.006;5.798;2023-04-25T14:24:28;3.22;;;1.02;;
35126;SDS011;21300;52.006;5.798;2023-04-25T14:26:53;8.85;;;1.20;;
35126;SDS011;21300;52.006;5.798;2023-04-25T14:29:19;3.45;;;0.90;;
35126;SDS011;21300;52.006;5.798;2023-04-25T14:31:44;3.22;;;1.00;;
35126;SDS011;21300;52.006;5.798;2023-04-25T14:34:10;2.67;;;0.75;;
35126;SDS011;21300;52.006;5.798;2023-04-25T14:36:36;3.13;;;1.08;;
35126;SDS011;21300;52.006;5.798;2023-04-25T14:39:02;5.22;;;1.20;;
35126;SDS011;21300;52.006;5.798;2023-04-25T14:41:28;5.60;;;1.08;;
35126;SDS011;21300;52.006;5.798;2023-04-25T14:43:53;5.10;;;1.52;;